sensor_id;sensor_type;location;lat;lon;timestamp;temperature;humidity
6052;DHT22;3054;51.204;4.430;2022-07-21T00:01:45;23.01;69.79
6052;DHT22;3054;51.204;4.430;2022-07-21T00:04:11;22.95;69.90
6052;DHT22;3054;51.204;4.430;2022-07-21T00:06:38;22.94;69.99
6052;DHT22;3054;51.204;4.430;2022-07-21T00:09:06;22.93;70.04
6052;DHT22;3054;51.204;4.430;2022-07-21T00:11:33;22.92;70.02
6052;DHT22;3054;51.204;4.430;2022-07-21T00:14:00;22.86;70.14
6052;DHT22;3054;51.204;4.430;2022-07-21T00:16:27;22.81;70.27
6052;DHT22;3054;51.204;4.430;2022-07-21T00:18:54;22.80;70.38
6052;DHT22;3054;51.204;4.430;2022-07-21T00:21:21;22.80;70.34
6052;DHT22;3054;51.204;4.430;2022-07-21T00:23:48;22.82;70.35
6052;DHT22;3054;51.204;4.430;2022-07-21T00:26:16;22.84;70.34
6052;DHT22;3054;51.204;4.430;2022-07-21T00:28:43;22.87;70.24
6052;DHT22;3054;51.204;4.430;2022-07-21T00:31:10;22.90;70.23
6052;DHT22;3054;51.204;4.430;2022-07-21T00:33:37;22.86;70.22
6052;DHT22;3054;51.204;4.430;2022-07-21T00:36:04;22.85;70.21
6052;DHT22;3054;51.204;4.430;2022-07-21T00:38:31;22.85;70.23
6052;DHT22;3054;51.204;4.430;2022-07-21T00:40:58;22.91;70.18
6052;DHT22;3054;51.204;4.430;2022-07-21T00:43:26;22.93;70.11
6052;DHT22;3054;51.204;4.430;2022-07-21T00:45:54;22.88;70.16
6052;DHT22;3054;51.204;4.430;2022-07-21T00:48:21;22.86;70.26
6052;DHT22;3054;51.204;4.430;2022-07-21T00:50:49;22.87;70.23
6052;DHT22;3054;51.204;4.430;2022-07-21T00:53:15;22.88;70.14
6052;DHT22;3054;51.204;4.430;2022-07-21T00:55:43;22.83;70.23
6052;DHT22;3054;51.204;4.430;2022-07-21T00:58:12;22.84;70.26
6052;DHT22;3054;51.204;4.430;2022-07-21T01:00:40;22.86;70.19
6052;DHT22;3054;51.204;4.430;2022-07-21T01:03:08;22.83;70.15
6052;DHT22;3054;51.204;4.430;2022-07-21T01:05:35;22.85;70.12
6052;DHT22;3054;51.204;4.430;2022-07-21T01:08:02;22.87;70.02
6052;DHT22;3054;51.204;4.430;2022-07-21T01:10:29;22.83;69.91
6052;DHT22;3054;51.204;4.430;2022-07-21T01:12:57;22.78;69.99
6052;DHT22;3054;51.204;4.430;2022-07-21T01:15:24;22.79;69.97
6052;DHT22;3054;51.204;4.430;2022-07-21T01:17:53;22.76;69.98
6052;DHT22;3054;51.204;4.430;2022-07-21T01:20:22;22.71;69.97
6052;DHT22;3054;51.204;4.430;2022-07-21T01:22:52;22.68;70.00
6052;DHT22;3054;51.204;4.430;2022-07-21T01:25:20;22.67;69.99
6052;DHT22;3054;51.204;4.430;2022-07-21T01:27:47;22.67;69.99
6052;DHT22;3054;51.204;4.430;2022-07-21T01:30:15;22.67;69.97
6052;DHT22;3054;51.204;4.430;2022-07-21T01:32:42;22.67;69.94
6052;DHT22;3054;51.204;4.430;2022-07-21T01:35:11;22.70;69.88
6052;DHT22;3054;51.204;4.430;2022-07-21T01:37:42;22.70;69.90
6052;DHT22;3054;51.204;4.430;2022-07-21T01:40:11;22.69;69.87
6052;DHT22;3054;51.204;4.430;2022-07-21T01:42:56;22.73;69.78
6052;DHT22;3054;51.204;4.430;2022-07-21T01:45:23;22.69;69.80
6052;DHT22;3054;51.204;4.430;2022-07-21T01:47:50;22.70;69.76
6052;DHT22;3054;51.204;4.430;2022-07-21T01:50:17;22.66;69.80
6052;DHT22;3054;51.204;4.430;2022-07-21T01:52:46;22.66;69.79
6052;DHT22;3054;51.204;4.430;2022-07-21T01:55:17;22.60;69.90
6052;DHT22;3054;51.204;4.430;2022-07-21T01:57:44;22.57;69.97
6052;DHT22;3054;51.204;4.430;2022-07-21T02:00:11;22.52;70.07
6052;DHT22;3054;51.204;4.430;2022-07-21T02:02:38;22.50;70.21
6052;DHT22;3054;51.204;4.430;2022-07-21T02:05:05;22.49;70.24
6052;DHT22;3054;51.204;4.430;2022-07-21T02:07:32;22.48;70.33
6052;DHT22;3054;51.204;4.430;2022-07-21T02:09:59;22.50;70.30
6052;DHT22;3054;51.204;4.430;2022-07-21T02:12:27;22.47;70.37
6052;DHT22;3054;51.204;4.430;2022-07-21T02:14:54;22.46;70.45
6052;DHT22;3054;51.204;4.430;2022-07-21T02:17:21;22.44;70.41
6052;DHT22;3054;51.204;4.430;2022-07-21T02:19:48;22.41;70.59
6052;DHT22;3054;51.204;4.430;2022-07-21T02:22:15;22.46;70.55
6052;DHT22;3054;51.204;4.430;2022-07-21T02:24:42;22.48;70.48
6052;DHT22;3054;51.204;4.430;2022-07-21T02:27:09;22.49;70.43
6052;DHT22;3054;51.204;4.430;2022-07-21T02:29:37;22.47;70.45
6052;DHT22;3054;51.204;4.430;2022-07-21T02:32:04;22.48;70.45
6052;DHT22;3054;51.204;4.430;2022-07-21T02:34:31;22.51;70.35
6052;DHT22;3054;51.204;4.430;2022-07-21T02:36:58;22.54;70.26
6052;DHT22;3054;51.204;4.430;2022-07-21T02:39:25;22.60;70.19
6052;DHT22;3054;51.204;4.430;2022-07-21T02:41:52;22.64;70.07
6052;DHT22;3054;51.204;4.430;2022-07-21T02:44:19;22.64;70.02
6052;DHT22;3054;51.204;4.430;2022-07-21T02:46:48;22.61;70.01
6052;DHT22;3054;51.204;4.430;2022-07-21T02:49:15;22.61;70.03
6052;DHT22;3054;51.204;4.430;2022-07-21T02:51:42;22.64;70.05
6052;DHT22;3054;51.204;4.430;2022-07-21T02:54:11;22.63;69.99
6052;DHT22;3054;51.204;4.430;2022-07-21T02:56:38;22.66;69.97
6052;DHT22;3054;51.204;4.430;2022-07-21T02:59:05;22.64;69.96
6052;DHT22;3054;51.204;4.430;2022-07-21T03:01:32;22.63;69.94
6052;DHT22;3054;51.204;4.430;2022-07-21T03:04:00;22.61;69.94
6052;DHT22;3054;51.204;4.430;2022-07-21T03:06:27;22.57;70.03
6052;DHT22;3054;51.204;4.430;2022-07-21T03:08:54;22.57;70.02
6052;DHT22;3054;51.204;4.430;2022-07-21T03:11:21;22.54;70.07
6052;DHT22;3054;51.204;4.430;2022-07-21T03:13:48;22.50;70.13
6052;DHT22;3054;51.204;4.430;2022-07-21T03:16:15;22.42;70.29
6052;DHT22;3054;51.204;4.430;2022-07-21T03:18:42;22.41;70.40
6052;DHT22;3054;51.204;4.430;2022-07-21T03:21:10;22.39;70.52
6052;DHT22;3054;51.204;4.430;2022-07-21T03:23:37;22.40;70.51
6052;DHT22;3054;51.204;4.430;2022-07-21T03:26:11;22.39;70.55
6052;DHT22;3054;51.204;4.430;2022-07-21T03:28:38;22.37;70.68
6052;DHT22;3054;51.204;4.430;2022-07-21T03:31:05;22.40;70.68
6052;DHT22;3054;51.204;4.430;2022-07-21T03:33:32;22.42;70.66
6052;DHT22;3054;51.204;4.430;2022-07-21T03:35:59;22.41;70.72
6052;DHT22;3054;51.204;4.430;2022-07-21T03:38:27;22.43;70.71
6052;DHT22;3054;51.204;4.430;2022-07-21T03:40:54;22.44;70.70
6052;DHT22;3054;51.204;4.430;2022-07-21T03:43:22;22.47;70.70
6052;DHT22;3054;51.204;4.430;2022-07-21T03:45:49;22.43;70.71
6052;DHT22;3054;51.204;4.430;2022-07-21T03:48:15;22.43;70.77
6052;DHT22;3054;51.204;4.430;2022-07-21T03:50:42;22.43;70.83
6052;DHT22;3054;51.204;4.430;2022-07-21T03:53:10;22.49;70.79
6052;DHT22;3054;51.204;4.430;2022-07-21T03:55:38;22.47;70.81
6052;DHT22;3054;51.204;4.430;2022-07-21T03:58:06;22.44;70.84
6052;DHT22;3054;51.204;4.430;2022-07-21T04:00:37;22.43;70.90
6052;DHT22;3054;51.204;4.430;2022-07-21T04:03:06;22.38;71.05
6052;DHT22;3054;51.204;4.430;2022-07-21T04:05:33;22.41;71.11
6052;DHT22;3054;51.204;4.430;2022-07-21T04:08:01;22.44;71.06
6052;DHT22;3054;51.204;4.430;2022-07-21T04:10:30;22.42;71.11
6052;DHT22;3054;51.204;4.430;2022-07-21T04:13:00;22.46;71.19
6052;DHT22;3054;51.204;4.430;2022-07-21T04:15:27;22.49;71.09
6052;DHT22;3054;51.204;4.430;2022-07-21T04:17:55;22.47;71.14
6052;DHT22;3054;51.204;4.430;2022-07-21T04:20:22;22.50;71.19
6052;DHT22;3054;51.204;4.430;2022-07-21T04:22:50;22.53;71.13
6052;DHT22;3054;51.204;4.430;2022-07-21T04:25:18;22.52;71.16
6052;DHT22;3054;51.204;4.430;2022-07-21T04:27:46;22.53;71.11
6052;DHT22;3054;51.204;4.430;2022-07-21T04:30:16;22.56;71.14
6052;DHT22;3054;51.204;4.430;2022-07-21T04:32:44;22.58;71.15
6052;DHT22;3054;51.204;4.430;2022-07-21T04:35:11;22.62;71.10
6052;DHT22;3054;51.204;4.430;2022-07-21T04:37:39;22.69;70.97
6052;DHT22;3054;51.204;4.430;2022-07-21T04:40:08;22.68;71.00
6052;DHT22;3054;51.204;4.430;2022-07-21T04:42:36;22.64;71.06
6052;DHT22;3054;51.204;4.430;2022-07-21T04:45:03;22.63;71.13
6052;DHT22;3054;51.204;4.430;2022-07-21T04:47:32;22.64;71.18
6052;DHT22;3054;51.204;4.430;2022-07-21T04:49:59;22.66;71.13
6052;DHT22;3054;51.204;4.430;2022-07-21T04:52:26;22.70;71.13
6052;DHT22;3054;51.204;4.430;2022-07-21T04:54:52;22.71;71.08
6052;DHT22;3054;51.204;4.430;2022-07-21T04:57:19;22.70;71.24
6052;DHT22;3054;51.204;4.430;2022-07-21T04:59:46;22.66;71.38
6052;DHT22;3054;51.204;4.430;2022-07-21T05:02:13;22.68;71.47
6052;DHT22;3054;51.204;4.430;2022-07-21T05:04:42;22.70;71.44
6052;DHT22;3054;51.204;4.430;2022-07-21T05:07:09;22.61;71.62
6052;DHT22;3054;51.204;4.430;2022-07-21T05:09:36;22.65;71.71
6052;DHT22;3054;51.204;4.430;2022-07-21T05:12:04;22.66;71.76
6052;DHT22;3054;51.204;4.430;2022-07-21T05:14:31;22.61;71.96
6052;DHT22;3054;51.204;4.430;2022-07-21T05:16:58;22.60;72.19
6052;DHT22;3054;51.204;4.430;2022-07-21T05:19:27;22.62;72.35
6052;DHT22;3054;51.204;4.430;2022-07-21T05:21:55;22.66;72.51
6052;DHT22;3054;51.204;4.430;2022-07-21T05:24:24;22.61;72.72
6052;DHT22;3054;51.204;4.430;2022-07-21T05:26:52;22.61;73.10
6052;DHT22;3054;51.204;4.430;2022-07-21T05:29:19;22.61;73.29
6052;DHT22;3054;51.204;4.430;2022-07-21T05:31:46;22.54;73.66
6052;DHT22;3054;51.204;4.430;2022-07-21T05:34:13;22.47;73.93
6052;DHT22;3054;51.204;4.430;2022-07-21T05:36:40;22.36;74.36
6052;DHT22;3054;51.204;4.430;2022-07-21T05:39:08;22.33;74.71
6052;DHT22;3054;51.204;4.430;2022-07-21T05:41:35;22.31;74.89
6052;DHT22;3054;51.204;4.430;2022-07-21T05:44:02;22.31;75.25
6052;DHT22;3054;51.204;4.430;2022-07-21T05:46:28;22.32;75.40
6052;DHT22;3054;51.204;4.430;2022-07-21T05:48:55;22.34;75.50
6052;DHT22;3054;51.204;4.430;2022-07-21T05:51:22;22.33;75.74
6052;DHT22;3054;51.204;4.430;2022-07-21T05:53:49;22.26;75.93
6052;DHT22;3054;51.204;4.430;2022-07-21T05:56:17;22.24;76.43
6052;DHT22;3054;51.204;4.430;2022-07-21T05:58:45;22.26;76.41
6052;DHT22;3054;51.204;4.430;2022-07-21T06:01:12;22.25;76.66
6052;DHT22;3054;51.204;4.430;2022-07-21T06:03:40;22.28;76.81
6052;DHT22;3054;51.204;4.430;2022-07-21T06:06:08;22.32;76.77
6052;DHT22;3054;51.204;4.430;2022-07-21T06:08:37;22.31;76.83
6052;DHT22;3054;51.204;4.430;2022-07-21T06:11:04;22.31;76.92
6052;DHT22;3054;51.204;4.430;2022-07-21T06:13:32;22.35;77.01
6052;DHT22;3054;51.204;4.430;2022-07-21T06:15:59;22.34;77.10
6052;DHT22;3054;51.204;4.430;2022-07-21T06:18:26;22.32;77.32
6052;DHT22;3054;51.204;4.430;2022-07-21T06:20:53;22.29;77.49
6052;DHT22;3054;51.204;4.430;2022-07-21T06:23:20;22.29;77.72
6052;DHT22;3054;51.204;4.430;2022-07-21T06:25:49;22.24;77.76
6052;DHT22;3054;51.204;4.430;2022-07-21T06:28:16;22.23;78.11
6052;DHT22;3054;51.204;4.430;2022-07-21T06:30:44;22.26;78.23
6052;DHT22;3054;51.204;4.430;2022-07-21T06:33:12;22.28;78.30
6052;DHT22;3054;51.204;4.430;2022-07-21T06:35:39;22.29;78.37
6052;DHT22;3054;51.204;4.430;2022-07-21T06:38:06;22.32;78.43
6052;DHT22;3054;51.204;4.430;2022-07-21T06:40:33;22.36;78.42
6052;DHT22;3054;51.204;4.430;2022-07-21T06:43:00;22.36;78.50
6052;DHT22;3054;51.204;4.430;2022-07-21T06:45:26;22.39;78.57
6052;DHT22;3054;51.204;4.430;2022-07-21T06:48:04;22.41;78.76
6052;DHT22;3054;51.204;4.430;2022-07-21T06:50:31;22.42;78.72
6052;DHT22;3054;51.204;4.430;2022-07-21T06:52:58;22.43;78.76
6052;DHT22;3054;51.204;4.430;2022-07-21T06:55:25;22.43;78.92
6052;DHT22;3054;51.204;4.430;2022-07-21T06:57:52;22.43;78.95
6052;DHT22;3054;51.204;4.430;2022-07-21T07:00:20;22.43;78.99
6052;DHT22;3054;51.204;4.430;2022-07-21T07:02:47;22.48;79.20
6052;DHT22;3054;51.204;4.430;2022-07-21T07:05:16;22.54;79.15
6052;DHT22;3054;51.204;4.430;2022-07-21T07:07:43;22.54;79.14
6052;DHT22;3054;51.204;4.430;2022-07-21T07:10:10;22.55;79.15
6052;DHT22;3054;51.204;4.430;2022-07-21T07:12:37;22.54;79.30
6052;DHT22;3054;51.204;4.430;2022-07-21T07:15:05;22.57;79.38
6052;DHT22;3054;51.204;4.430;2022-07-21T07:17:32;22.58;79.45
6052;DHT22;3054;51.204;4.430;2022-07-21T07:20:00;22.64;79.42
6052;DHT22;3054;51.204;4.430;2022-07-21T07:22:28;22.69;79.40
6052;DHT22;3054;51.204;4.430;2022-07-21T07:24:55;22.72;79.32
6052;DHT22;3054;51.204;4.430;2022-07-21T07:27:22;22.73;79.30
6052;DHT22;3054;51.204;4.430;2022-07-21T07:29:49;22.76;79.31
6052;DHT22;3054;51.204;4.430;2022-07-21T07:32:15;22.77;79.35
6052;DHT22;3054;51.204;4.430;2022-07-21T07:34:42;22.76;79.37
6052;DHT22;3054;51.204;4.430;2022-07-21T07:37:09;22.77;79.37
6052;DHT22;3054;51.204;4.430;2022-07-21T07:39:37;22.77;79.43
6052;DHT22;3054;51.204;4.430;2022-07-21T07:42:05;22.80;79.28
6052;DHT22;3054;51.204;4.430;2022-07-21T07:44:34;22.84;79.23
6052;DHT22;3054;51.204;4.430;2022-07-21T07:47:01;22.85;79.20
6052;DHT22;3054;51.204;4.430;2022-07-21T07:49:28;22.88;79.08
6052;DHT22;3054;51.204;4.430;2022-07-21T07:51:55;22.93;78.96
6052;DHT22;3054;51.204;4.430;2022-07-21T07:54:22;22.95;78.88
6052;DHT22;3054;51.204;4.430;2022-07-21T07:56:51;22.95;78.86
6052;DHT22;3054;51.204;4.430;2022-07-21T07:59:18;22.94;78.87
6052;DHT22;3054;51.204;4.430;2022-07-21T08:01:45;22.94;78.91
6052;DHT22;3054;51.204;4.430;2022-07-21T08:04:12;22.92;78.92
6052;DHT22;3054;51.204;4.430;2022-07-21T08:06:40;22.92;78.85
6052;DHT22;3054;51.204;4.430;2022-07-21T08:09:08;22.91;78.89
6052;DHT22;3054;51.204;4.430;2022-07-21T08:11:35;22.92;78.82
6052;DHT22;3054;51.204;4.430;2022-07-21T08:14:03;22.95;78.72
6052;DHT22;3054;51.204;4.430;2022-07-21T08:16:30;22.97;78.60
6052;DHT22;3054;51.204;4.430;2022-07-21T08:18:57;22.96;78.55
6052;DHT22;3054;51.204;4.430;2022-07-21T08:21:24;22.96;78.50
6052;DHT22;3054;51.204;4.430;2022-07-21T08:23:56;23.00;78.32
6052;DHT22;3054;51.204;4.430;2022-07-21T08:26:24;22.98;78.32
6052;DHT22;3054;51.204;4.430;2022-07-21T08:28:51;23.00;78.24
6052;DHT22;3054;51.204;4.430;2022-07-21T08:31:20;23.05;78.18
6052;DHT22;3054;51.204;4.430;2022-07-21T08:33:48;23.07;78.18
6052;DHT22;3054;51.204;4.430;2022-07-21T08:36:14;23.06;78.22
6052;DHT22;3054;51.204;4.430;2022-07-21T08:38:41;23.08;78.26
6052;DHT22;3054;51.204;4.430;2022-07-21T08:41:08;23.10;78.12
6052;DHT22;3054;51.204;4.430;2022-07-21T08:43:35;23.06;78.22
6052;DHT22;3054;51.204;4.430;2022-07-21T08:46:03;23.05;78.31
6052;DHT22;3054;51.204;4.430;2022-07-21T08:48:31;23.10;78.19
6052;DHT22;3054;51.204;4.430;2022-07-21T08:50:58;23.07;78.35
6052;DHT22;3054;51.204;4.430;2022-07-21T08:53:25;23.05;78.40
6052;DHT22;3054;51.204;4.430;2022-07-21T08:55:53;23.03;78.37
6052;DHT22;3054;51.204;4.430;2022-07-21T08:58:21;23.05;78.31
6052;DHT22;3054;51.204;4.430;2022-07-21T09:00:49;23.06;78.21
6052;DHT22;3054;51.204;4.430;2022-07-21T09:03:18;23.06;78.14
6052;DHT22;3054;51.204;4.430;2022-07-21T09:06:05;23.02;78.20
6052;DHT22;3054;51.204;4.430;2022-07-21T09:08:35;23.00;78.11
6052;DHT22;3054;51.204;4.430;2022-07-21T09:11:14;22.94;78.11
6052;DHT22;3054;51.204;4.430;2022-07-21T09:13:43;22.95;77.98
6052;DHT22;3054;51.204;4.430;2022-07-21T09:16:10;22.93;77.95
6052;DHT22;3054;51.204;4.430;2022-07-21T09:18:51;22.96;77.85
6052;DHT22;3054;51.204;4.430;2022-07-21T09:21:19;23.00;77.68
6052;DHT22;3054;51.204;4.430;2022-07-21T09:23:46;23.02;77.53
6052;DHT22;3054;51.204;4.430;2022-07-21T09:26:13;23.06;77.30
6052;DHT22;3054;51.204;4.430;2022-07-21T09:28:41;23.02;77.34
6052;DHT22;3054;51.204;4.430;2022-07-21T09:31:09;23.06;77.25
6052;DHT22;3054;51.204;4.430;2022-07-21T09:33:39;23.16;76.84
6052;DHT22;3054;51.204;4.430;2022-07-21T09:36:07;23.27;76.49
6052;DHT22;3054;51.204;4.430;2022-07-21T09:38:38;23.20;76.80
6052;DHT22;3054;51.204;4.430;2022-07-21T09:41:07;23.14;76.96
6052;DHT22;3054;51.204;4.430;2022-07-21T09:43:37;23.12;77.09
6052;DHT22;3054;51.204;4.430;2022-07-21T09:46:10;23.09;77.15
6052;DHT22;3054;51.204;4.430;2022-07-21T09:48:40;23.03;77.25
6052;DHT22;3054;51.204;4.430;2022-07-21T09:51:26;23.00;77.27
6052;DHT22;3054;51.204;4.430;2022-07-21T09:53:56;22.96;77.28
6052;DHT22;3054;51.204;4.430;2022-07-21T09:56:25;22.94;77.31
6052;DHT22;3054;51.204;4.430;2022-07-21T09:58:54;22.96;77.37
6052;DHT22;3054;51.204;4.430;2022-07-21T10:01:21;23.00;77.27
6052;DHT22;3054;51.204;4.430;2022-07-21T10:03:50;23.03;77.13
6052;DHT22;3054;51.204;4.430;2022-07-21T10:06:19;23.06;77.07
6052;DHT22;3054;51.204;4.430;2022-07-21T10:08:46;23.07;77.07
6052;DHT22;3054;51.204;4.430;2022-07-21T10:11:15;23.06;76.92
6052;DHT22;3054;51.204;4.430;2022-07-21T10:13:43;23.09;76.79
6052;DHT22;3054;51.204;4.430;2022-07-21T10:16:11;23.10;76.78
6052;DHT22;3054;51.204;4.430;2022-07-21T10:18:55;23.10;76.74
6052;DHT22;3054;51.204;4.430;2022-07-21T10:21:33;23.12;76.50
6052;DHT22;3054;51.204;4.430;2022-07-21T10:24:02;23.14;76.48
6052;DHT22;3054;51.204;4.430;2022-07-21T10:26:32;23.15;76.54
6052;DHT22;3054;51.204;4.430;2022-07-21T10:29:00;23.12;76.63
6052;DHT22;3054;51.204;4.430;2022-07-21T10:31:26;23.10;76.64
6052;DHT22;3054;51.204;4.430;2022-07-21T10:33:59;23.05;76.72
6052;DHT22;3054;51.204;4.430;2022-07-21T10:36:45;23.09;76.64
6052;DHT22;3054;51.204;4.430;2022-07-21T10:39:25;23.07;76.60
6052;DHT22;3054;51.204;4.430;2022-07-21T10:41:57;23.05;76.70
6052;DHT22;3054;51.204;4.430;2022-07-21T10:44:43;23.02;76.75
6052;DHT22;3054;51.204;4.430;2022-07-21T10:47:12;22.99;76.76
6052;DHT22;3054;51.204;4.430;2022-07-21T10:49:51;22.97;76.82
6052;DHT22;3054;51.204;4.430;2022-07-21T10:52:55;22.87;77.01
6052;DHT22;3054;51.204;4.430;2022-07-21T10:55:24;22.85;77.06
6052;DHT22;3054;51.204;4.430;2022-07-21T10:58:16;22.85;77.15
6052;DHT22;3054;51.204;4.430;2022-07-21T11:00:46;22.88;77.05
6052;DHT22;3054;51.204;4.430;2022-07-21T11:03:15;22.93;77.02
6052;DHT22;3054;51.204;4.430;2022-07-21T11:06:13;22.94;77.08
6052;DHT22;3054;51.204;4.430;2022-07-21T11:08:42;22.94;77.02
6052;DHT22;3054;51.204;4.430;2022-07-21T11:11:11;22.97;76.99
6052;DHT22;3054;51.204;4.430;2022-07-21T11:14:02;22.98;77.02
6052;DHT22;3054;51.204;4.430;2022-07-21T11:19:45;23.05;76.86
6052;DHT22;3054;51.204;4.430;2022-07-21T11:22:15;23.03;76.83
6052;DHT22;3054;51.204;4.430;2022-07-21T11:24:43;22.98;76.94
6052;DHT22;3054;51.204;4.430;2022-07-21T11:27:13;23.00;77.01
6052;DHT22;3054;51.204;4.430;2022-07-21T11:29:44;22.99;77.01
6052;DHT22;3054;51.204;4.430;2022-07-21T11:32:12;23.02;76.89
6052;DHT22;3054;51.204;4.430;2022-07-21T11:34:45;23.12;76.63
6052;DHT22;3054;51.204;4.430;2022-07-21T11:37:14;23.14;76.54
6052;DHT22;3054;51.204;4.430;2022-07-21T11:39:42;23.18;76.33
6052;DHT22;3054;51.204;4.430;2022-07-21T11:42:11;23.23;76.24
6052;DHT22;3054;51.204;4.430;2022-07-21T11:44:43;23.29;76.01
6052;DHT22;3054;51.204;4.430;2022-07-21T11:47:11;23.31;76.01
6052;DHT22;3054;51.204;4.430;2022-07-21T11:49:39;23.38;75.79
6052;DHT22;3054;51.204;4.430;2022-07-21T11:52:08;23.39;75.70
6052;DHT22;3054;51.204;4.430;2022-07-21T11:54:38;23.36;75.72
6052;DHT22;3054;51.204;4.430;2022-07-21T11:57:06;23.36;75.76
6052;DHT22;3054;51.204;4.430;2022-07-21T11:59:35;23.38;75.67
6052;DHT22;3054;51.204;4.430;2022-07-21T12:02:06;23.34;75.70
6052;DHT22;3054;51.204;4.430;2022-07-21T12:04:43;23.37;75.60
6052;DHT22;3054;51.204;4.430;2022-07-21T12:07:17;23.42;75.44
6052;DHT22;3054;51.204;4.430;2022-07-21T12:09:47;23.52;75.16
6052;DHT22;3054;51.204;4.430;2022-07-21T12:12:15;23.52;75.00
6052;DHT22;3054;51.204;4.430;2022-07-21T12:14:46;23.58;74.72
6052;DHT22;3054;51.204;4.430;2022-07-21T12:17:16;23.60;74.69
6052;DHT22;3054;51.204;4.430;2022-07-21T12:19:44;23.59;74.67
6052;DHT22;3054;51.204;4.430;2022-07-21T12:22:11;23.59;74.54
6052;DHT22;3054;51.204;4.430;2022-07-21T12:24:52;23.64;74.34
6052;DHT22;3054;51.204;4.430;2022-07-21T12:27:19;23.69;74.11
6052;DHT22;3054;51.204;4.430;2022-07-21T12:29:48;23.73;73.93
6052;DHT22;3054;51.204;4.430;2022-07-21T12:32:40;23.76;73.77
6052;DHT22;3054;51.204;4.430;2022-07-21T12:35:17;23.72;73.76
6052;DHT22;3054;51.204;4.430;2022-07-21T12:38:08;23.67;73.92
6052;DHT22;3054;51.204;4.430;2022-07-21T12:40:37;23.67;73.83
6052;DHT22;3054;51.204;4.430;2022-07-21T12:43:13;23.68;73.54
6052;DHT22;3054;51.204;4.430;2022-07-21T12:45:48;23.72;73.40
6052;DHT22;3054;51.204;4.430;2022-07-21T12:48:18;23.82;73.04
6052;DHT22;3054;51.204;4.430;2022-07-21T12:51:04;24.05;72.40
6052;DHT22;3054;51.204;4.430;2022-07-21T12:53:32;23.94;72.63
6052;DHT22;3054;51.204;4.430;2022-07-21T12:55:59;23.90;72.79
6052;DHT22;3054;51.204;4.430;2022-07-21T12:58:26;23.96;72.55
6052;DHT22;3054;51.204;4.430;2022-07-21T13:00:54;24.05;72.32
6052;DHT22;3054;51.204;4.430;2022-07-21T13:03:23;23.99;72.46
6052;DHT22;3054;51.204;4.430;2022-07-21T13:05:50;23.92;72.58
6052;DHT22;3054;51.204;4.430;2022-07-21T13:08:17;23.83;72.76
6052;DHT22;3054;51.204;4.430;2022-07-21T13:10:44;23.75;72.96
6052;DHT22;3054;51.204;4.430;2022-07-21T13:13:12;23.72;72.94
6052;DHT22;3054;51.204;4.430;2022-07-21T13:15:39;23.68;72.90
6052;DHT22;3054;51.204;4.430;2022-07-21T13:18:06;23.66;72.85
6052;DHT22;3054;51.204;4.430;2022-07-21T13:20:34;23.64;72.77
6052;DHT22;3054;51.204;4.430;2022-07-21T13:23:01;23.65;72.61
6052;DHT22;3054;51.204;4.430;2022-07-21T13:25:28;23.70;72.33
6052;DHT22;3054;51.204;4.430;2022-07-21T13:27:56;23.80;72.03
6052;DHT22;3054;51.204;4.430;2022-07-21T13:30:23;23.77;72.03
6052;DHT22;3054;51.204;4.430;2022-07-21T13:32:50;23.74;71.97
6052;DHT22;3054;51.204;4.430;2022-07-21T13:35:17;23.76;71.85
6052;DHT22;3054;51.204;4.430;2022-07-21T13:37:45;23.79;71.80
6052;DHT22;3054;51.204;4.430;2022-07-21T13:40:12;23.81;71.59
6052;DHT22;3054;51.204;4.430;2022-07-21T13:42:39;23.83;71.50
6052;DHT22;3054;51.204;4.430;2022-07-21T13:45:07;23.80;71.51
6052;DHT22;3054;51.204;4.430;2022-07-21T13:47:36;23.79;71.55
6052;DHT22;3054;51.204;4.430;2022-07-21T13:50:04;23.73;71.67
6052;DHT22;3054;51.204;4.430;2022-07-21T13:52:31;23.71;71.67
6052;DHT22;3054;51.204;4.430;2022-07-21T13:55:01;23.71;71.61
6052;DHT22;3054;51.204;4.430;2022-07-21T13:57:27;23.76;71.28
6052;DHT22;3054;51.204;4.430;2022-07-21T13:59:54;23.99;70.62
6052;DHT22;3054;51.204;4.430;2022-07-21T14:02:21;24.17;69.90
6052;DHT22;3054;51.204;4.430;2022-07-21T14:04:48;24.11;70.07
6052;DHT22;3054;51.204;4.430;2022-07-21T14:07:15;24.06;70.11
6052;DHT22;3054;51.204;4.430;2022-07-21T14:09:43;24.32;69.22
6052;DHT22;3054;51.204;4.430;2022-07-21T14:12:11;24.54;68.64
6052;DHT22;3054;51.204;4.430;2022-07-21T14:14:38;24.63;68.41
6052;DHT22;3054;51.204;4.430;2022-07-21T14:17:06;24.66;68.20
6052;DHT22;3054;51.204;4.430;2022-07-21T14:19:34;24.56;68.33
6052;DHT22;3054;51.204;4.430;2022-07-21T14:22:01;24.51;68.38
6052;DHT22;3054;51.204;4.430;2022-07-21T14:24:28;24.53;68.20
6052;DHT22;3054;51.204;4.430;2022-07-21T14:27:14;24.35;68.52
6052;DHT22;3054;51.204;4.430;2022-07-21T14:29:40;24.18;68.87
6052;DHT22;3054;51.204;4.430;2022-07-21T14:32:07;24.06;69.05
6052;DHT22;3054;51.204;4.430;2022-07-21T14:34:34;24.12;68.90
6052;DHT22;3054;51.204;4.430;2022-07-21T14:37:03;24.21;68.53
6052;DHT22;3054;51.204;4.430;2022-07-21T14:39:29;24.27;68.39
6052;DHT22;3054;51.204;4.430;2022-07-21T14:41:56;24.29;68.20
6052;DHT22;3054;51.204;4.430;2022-07-21T14:44:24;24.30;67.93
6052;DHT22;3054;51.204;4.430;2022-07-21T14:46:51;24.31;67.81
6052;DHT22;3054;51.204;4.430;2022-07-21T14:49:18;24.24;67.88
6052;DHT22;3054;51.204;4.430;2022-07-21T14:51:45;24.20;67.90
6052;DHT22;3054;51.204;4.430;2022-07-21T14:54:12;24.24;67.77
6052;DHT22;3054;51.204;4.430;2022-07-21T14:56:39;24.33;67.36
6052;DHT22;3054;51.204;4.430;2022-07-21T14:59:06;24.34;67.22
6052;DHT22;3054;51.204;4.430;2022-07-21T15:01:34;24.26;67.52
6052;DHT22;3054;51.204;4.430;2022-07-21T15:04:01;24.15;67.71
6052;DHT22;3054;51.204;4.430;2022-07-21T15:06:28;24.05;67.85
6052;DHT22;3054;51.204;4.430;2022-07-21T15:08:55;23.97;67.92
6052;DHT22;3054;51.204;4.430;2022-07-21T15:11:23;23.92;67.95
6052;DHT22;3054;51.204;4.430;2022-07-21T15:13:51;23.86;68.01
6052;DHT22;3054;51.204;4.430;2022-07-21T15:16:18;23.82;67.97
6052;DHT22;3054;51.204;4.430;2022-07-21T15:18:47;23.77;68.01
6052;DHT22;3054;51.204;4.430;2022-07-21T15:21:16;23.83;67.86
6052;DHT22;3054;51.204;4.430;2022-07-21T15:23:42;23.85;67.62
6052;DHT22;3054;51.204;4.430;2022-07-21T15:26:09;23.89;67.42
6052;DHT22;3054;51.204;4.430;2022-07-21T15:28:36;23.89;67.31
6052;DHT22;3054;51.204;4.430;2022-07-21T15:31:03;23.88;67.23
6052;DHT22;3054;51.204;4.430;2022-07-21T15:33:30;23.86;67.17
6052;DHT22;3054;51.204;4.430;2022-07-21T15:35:59;23.80;67.23
6052;DHT22;3054;51.204;4.430;2022-07-21T15:38:25;23.74;67.36
6052;DHT22;3054;51.204;4.430;2022-07-21T15:40:52;23.69;67.39
6052;DHT22;3054;51.204;4.430;2022-07-21T15:43:19;23.66;67.49
6052;DHT22;3054;51.204;4.430;2022-07-21T15:45:46;23.58;67.58
6052;DHT22;3054;51.204;4.430;2022-07-21T15:48:14;23.54;67.68
6052;DHT22;3054;51.204;4.430;2022-07-21T15:50:40;23.50;67.78
6052;DHT22;3054;51.204;4.430;2022-07-21T15:53:09;23.50;67.83
6052;DHT22;3054;51.204;4.430;2022-07-21T15:55:36;23.46;67.96
6052;DHT22;3054;51.204;4.430;2022-07-21T15:58:02;23.44;67.98
6052;DHT22;3054;51.204;4.430;2022-07-21T16:00:29;23.43;67.99
6052;DHT22;3054;51.204;4.430;2022-07-21T16:02:57;23.42;67.94
6052;DHT22;3054;51.204;4.430;2022-07-21T16:05:25;23.35;68.04
6052;DHT22;3054;51.204;4.430;2022-07-21T16:07:53;23.29;68.08
6052;DHT22;3054;51.204;4.430;2022-07-21T16:10:23;23.24;68.25
6052;DHT22;3054;51.204;4.430;2022-07-21T16:12:50;23.23;68.29
6052;DHT22;3054;51.204;4.430;2022-07-21T16:15:19;23.20;68.33